Custer, SD

9:43 PM MDT on October 20, 2019 (GMT -0600)
Buckhorn Estates | | Change Station

Elev 5574 ft 43.77 °N, 103.62 °W | Updated 8 seconds ago

Light Snow
Light Snow
32 °F
Feels Like 28 °F
N
4.3
Wind Variable Wind from ESE
Gusts 16.8 mph

Today
High -- | Low -- °F
--% Chance of Precip.
Yesterday
High -- | Low -- °F
Precip. -- in
Pressure 29.78 in
Visibility -9999.0 miles
Clouds Few 1400 ft
Mostly Cloudy 2100 ft
Overcast 2600 ft
Windchill 28 °F
Dew Point -18 °F
Humidity 10%
Rainfall 0.01 in
Snow Depth Not available.
7:14 AM 6:02 PM
Waning Gibbous, 54% visible
METAR KCUT 210253Z AUTO 31008G17KT 270V330 -SN FEW014 BKN021 OVC026 M01/M03 A2973 RMK AO2 PK WND 32026/0220 UPB26E29SNE26B44 SLP085 P0000 60001 T10061033 51042 $
Pressure 29.78 in
Visibility -9999.0 miles
Clouds Few 1400 ft
Mostly Cloudy 2100 ft
Overcast 2600 ft
Windchill 28 °F
Dew Point -18 °F
Humidity 10%
Rainfall 0.01 in
Snow Depth Not available.
7:14 AM 6:02 PM
Waning Gibbous, 54% visible
METAR KCUT 210253Z AUTO 31008G17KT 270V330 -SN FEW014 BKN021 OVC026 M01/M03 A2973 RMK AO2 PK WND 32026/0220 UPB26E29SNE26B44 SLP085 P0000 60001 T10061033 51042 $

Get Severe Weather Alerts

Thanks for signing up!

Be on the lookout for a verification email in your inbox.

You'll start receiving the daily forecast at 6 AM.

×

10-Day Weather Forecast

Almanac

Astronomy

Oct. 20, 2019 Rise Set
Actual Time
Civil Twilight
Nautical Twilight
Astronomical Twilight
Moon
Length of Visible Light
Length of Day
Tomorrow will be .
, % of the Moon is Illuminated

Today's Extremes

State Highs State Lows

Community

WunderPhotos

Category 6

Welcome to Category 6. This is the collective home for Weather Underground's featured writeups by Dr. Jeff Masters (right), Bob Henson (left), Chris Burt, and other regular contributors.

Nearby

Air Quality

  Air Quality AQ Index Pollutant
Not available.

Snow Depth

Station Depth Elevation

Earthquake Activity

City Distance Mag. Time & Date
Minimum magnitude displayed is 2.5.

Coastal Water Temperatures

Place Temperature

Stations

Nearby Weather Stations

Station Location Temp. Windchill Dew Point Humidity Wind Precip. Elev Updated Type
                   

Watches & Warnings

There are currently no watches in effect.